Time;durP1;ratioP1;P1;durP2;ratioP2;P2;SDS_P1;SDS_P2;PMS_P1;PMS_P2;Temp;Humidity;BMP_temperature;BMP_pressure;BME280_temperature;BME280_humidity;BME280_pressure;Samples;Min_cycle;Max_cycle;Signal;HPM_P1;HPM_P2
2022/11/13 00:01:13;;;;;;;23.90;15.90;;;;;;;4.93;92.48;102185.45;103638;1293;74275;-76
2022/11/13 00:03:40;;;;;;;24.40;16.20;;;;;;;4.92;92.80;102180.79;103513;1301;70928;-74
2022/11/13 00:06:07;;;;;;;25.20;17.10;;;;;;;4.91;92.89;102177.88;103044;1295;74602;-76
2022/11/13 00:08:33;;;;;;;26.20;16.10;;;;;;;4.91;93.01;102177.00;103180;1301;60472;-76
2022/11/13 00:11:02;;;;;;;25.80;16.50;;;;;;;4.91;93.18;102177.16;102653;1301;63328;-77
2022/11/13 00:13:29;;;;;;;25.50;16.50;;;;;;;4.90;93.46;102176.00;103129;1301;71487;-76
2022/11/13 00:16:05;;;;;;;25.10;15.90;;;;;;;4.88;93.53;102178.55;103053;1302;69784;-76
2022/11/13 00:18:34;;;;;;;26.10;16.90;;;;;;;4.87;93.99;102173.05;103332;1300;72226;-76
2022/11/13 00:21:11;;;;;;;27.80;17.40;;;;;;;4.86;94.17;102170.30;103369;1296;61644;-75
2022/11/13 00:23:39;;;;;;;29.20;17.80;;;;;;;4.88;94.29;102171.75;103291;1295;60482;-76
2022/11/13 00:26:08;;;;;;;25.40;17.40;;;;;;;4.88;94.15;102167.72;102986;1293;72686;-76
2022/11/13 00:28:35;;;;;;;27.50;17.60;;;;;;;4.88;94.03;102166.98;103147;1301;69567;-76
2022/11/13 00:31:03;;;;;;;26.40;17.40;;;;;;;4.88;94.04;102164.02;102745;1294;71288;-75
2022/11/13 00:33:30;;;;;;;25.80;16.80;;;;;;;4.88;94.03;102159.98;103067;1303;60994;-75
2022/11/13 00:36:19;;;;;;;24.90;17.00;;;;;;;4.86;93.74;102153.83;103352;1301;59811;-76
2022/11/13 00:38:51;;;;;;;26.10;17.50;;;;;;;4.82;93.70;102147.08;103917;1301;72835;-74
2022/11/13 00:41:19;;;;;;;26.60;16.90;;;;;;;4.79;94.03;102151.13;102971;1298;69674;-75
2022/11/13 00:43:45;;;;;;;26.30;17.80;;;;;;;4.77;94.58;102157.05;103222;1291;71473;-75
2022/11/13 00:46:12;;;;;;;26.50;17.50;;;;;;;4.77;94.77;102159.34;103003;1299;62663;-75
2022/11/13 00:48:38;;;;;;;28.60;19.30;;;;;;;4.76;95.10;102155.00;102792;1299;60628;-76
2022/11/13 00:51:05;;;;;;;25.30;17.00;;;;;;;4.76;95.24;102151.88;103042;1299;73597;-76
2022/11/13 00:53:32;;;;;;;25.60;17.20;;;;;;;4.75;95.25;102152.45;103371;1297;70347;-75
2022/11/13 00:55:59;;;;;;;28.40;16.80;;;;;;;4.74;95.06;102151.98;103661;1301;73281;-76
2022/11/13 00:58:26;;;;;;;29.20;19.10;;;;;;;4.75;95.14;102158.06;102734;1299;60580;-75
2022/11/13 01:00:53;;;;;;;26.10;17.80;;;;;;;4.75;95.11;102157.70;103135;1299;60514;-75
2022/11/13 01:03:20;;;;;;;25.80;16.90;;;;;;;4.76;95.07;102157.80;103427;1302;73704;-75
2022/11/13 01:05:46;;;;;;;25.00;16.90;;;;;;;4.76;94.94;102149.92;103074;1300;60468;-75
2022/11/13 01:08:14;;;;;;;27.40;16.60;;;;;;;4.76;94.66;102152.73;102699;1294;60535;-75
2022/11/13 01:10:45;;;;;;;26.90;17.10;;;;;;;4.75;94.61;102157.55;103072;1300;60978;-74
2022/11/13 01:13:19;;;;;;;25.20;16.60;;;;;;;4.72;94.47;102150.70;104362;1293;59495;-75
2022/11/13 01:15:45;;;;;;;22.90;16.30;;;;;;;4.69;94.38;102147.73;102996;1300;72306;-74
2022/11/13 01:18:12;;;;;;;26.90;16.50;;;;;;;4.67;94.43;102143.18;102894;1301;60378;-75
2022/11/13 01:20:39;;;;;;;24.80;16.20;;;;;;;4.64;94.19;102140.21;103046;1301;73194;-75
2022/11/13 01:23:06;;;;;;;23.40;15.90;;;;;;;4.59;94.00;102139.16;103181;1279;60611;-74
2022/11/13 01:25:32;;;;;;;24.80;16.10;;;;;;;4.55;93.95;102140.64;103098;1297;60518;-75
2022/11/13 01:27:59;;;;;;;25.60;17.10;;;;;;;4.50;93.97;102141.33;102628;1296;60592;-75
2022/11/13 01:30:25;;;;;;;24.20;16.70;;;;;;;4.46;94.06;102140.80;103772;1292;60410;-75
2022/11/13 01:32:52;;;;;;;26.40;17.00;;;;;;;4.43;93.96;102137.16;104077;1290;60518;-75
2022/11/13 01:35:18;;;;;;;26.30;17.30;;;;;;;4.40;94.15;102133.86;102973;1285;60689;-75
2022/11/13 01:37:45;;;;;;;27.00;17.80;;;;;;;4.37;94.31;102135.30;102639;1301;60906;-76
2022/11/13 01:40:12;;;;;;;30.10;17.10;;;;;;;4.34;94.18;102131.84;103178;1292;60371;-76
2022/11/13 01:42:39;;;;;;;26.10;17.50;;;;;;;4.30;94.25;102129.42;102966;1295;68583;-75
2022/11/13 01:45:44;;;;;;;26.00;16.90;;;;;;;4.27;94.39;102126.98;102851;1292;71333;-75
2022/11/13 01:48:11;;;;;;;26.90;17.40;;;;;;;4.23;94.30;102125.83;103036;1291;60880;-75
2022/11/13 01:50:38;;;;;;;27.20;18.40;;;;;;;4.20;94.28;102122.21;103730;1294;60349;-75
2022/11/13 01:53:06;;;;;;;27.70;17.40;;;;;;;4.18;94.62;102119.03;103827;1294;72308;-75
2022/11/13 01:55:33;;;;;;;24.40;16.20;;;;;;;4.16;94.46;102118.44;103218;1291;70115;-75
2022/11/13 01:58:01;;;;;;;29.40;18.00;;;;;;;4.12;94.28;102121.49;103131;1301;70836;-76
2022/11/13 02:00:27;;;;;;;24.80;17.20;;;;;;;4.08;94.24;102115.42;103210;1286;62072;-74
2022/11/13 02:02:54;;;;;;;23.90;16.60;;;;;;;4.06;94.20;102114.65;102825;1300;60577;-75
2022/11/13 02:05:21;;;;;;;26.40;17.20;;;;;;;4.02;93.86;102111.08;102922;1300;72637;-75
2022/11/13 02:07:47;;;;;;;26.20;16.40;;;;;;;3.98;94.02;102105.93;103214;1296;60511;-75
2022/11/13 02:10:14;;;;;;;22.70;16.40;;;;;;;3.93;93.82;102103.60;103828;1300;71318;-74
2022/11/13 02:12:43;;;;;;;23.40;16.00;;;;;;;3.89;94.02;102101.91;103768;1301;60518;-75
2022/11/13 02:15:10;;;;;;;26.10;16.50;;;;;;;3.86;93.97;102098.95;102944;1301;59479;-75
2022/11/13 02:17:43;;;;;;;22.60;16.20;;;;;;;3.84;94.06;102097.36;103219;1289;72626;-76
2022/11/13 02:20:11;;;;;;;25.70;17.10;;;;;;;3.82;94.19;102098.36;103144;1302;69586;-76
2022/11/13 02:23:19;;;;;;;26.30;17.70;;;;;;;3.78;93.90;102095.61;102530;1298;72526;-75
2022/11/13 02:25:51;;;;;;;25.00;17.00;;;;;;;3.75;94.25;102098.45;102760;1299;60614;-75
2022/11/13 02:28:17;;;;;;;27.70;19.10;;;;;;;3.72;94.36;102098.61;104226;1293;59606;-76
2022/11/13 02:30:44;;;;;;;28.20;18.40;;;;;;;3.70;94.37;102105.60;103902;1287;73833;-75
2022/11/13 02:33:25;;;;;;;27.50;18.00;;;;;;;3.66;94.08;102106.52;103954;1299;72543;-76
2022/11/13 02:35:52;;;;;;;26.40;17.70;;;;;;;3.60;94.14;102107.20;103653;1298;72297;-75
2022/11/13 02:38:19;;;;;;;23.00;16.90;;;;;;;3.58;94.26;102108.23;103598;1299;61679;-75
2022/11/13 02:40:46;;;;;;;25.60;17.40;;;;;;;3.54;93.96;102110.04;104125;1304;60864;-75
2022/11/13 02:43:12;;;;;;;26.70;16.70;;;;;;;3.49;94.08;102113.86;103211;1298;72652;-76
2022/11/13 02:45:39;;;;;;;24.60;16.50;;;;;;;3.44;94.15;102106.14;103677;1301;60516;-76
2022/11/13 02:48:06;;;;;;;23.40;15.40;;;;;;;3.40;94.22;102111.96;104974;1293;60504;-74
2022/11/13 02:50:34;;;;;;;22.20;16.90;;;;;;;3.37;94.30;102103.42;103632;1294;60670;-75
2022/11/13 02:53:01;;;;;;;21.90;16.00;;;;;;;3.33;94.29;102101.58;103965;1301;60360;-76
2022/11/13 02:55:28;;;;;;;23.00;15.50;;;;;;;3.29;94.34;102104.62;103325;1293;72646;-76
2022/11/13 02:57:54;;;;;;;21.50;15.60;;;;;;;3.25;94.31;102101.16;103844;1292;60794;-75
2022/11/13 03:00:21;;;;;;;20.30;15.30;;;;;;;3.24;94.56;102097.03;103672;1291;60724;-76
2022/11/13 03:02:47;;;;;;;20.20;14.60;;;;;;;3.22;94.52;102092.41;103592;1292;61067;-76
2022/11/13 03:05:14;;;;;;;20.50;14.80;;;;;;;3.19;94.44;102091.02;104343;1296;60540;-76
2022/11/13 03:07:41;;;;;;;19.90;14.60;;;;;;;3.17;94.77;102091.64;104634;1289;61657;-77
2022/11/13 03:10:09;;;;;;;22.00;15.40;;;;;;;3.14;94.84;102093.05;104166;1285;70946;-76
2022/11/13 03:12:36;;;;;;;22.80;15.40;;;;;;;3.12;94.83;102093.20;103299;1301;73772;-75
2022/11/13 03:15:04;;;;;;;18.10;14.30;;;;;;;3.10;95.08;102091.36;103597;1294;60673;-74
2022/11/13 03:17:31;;;;;;;20.80;15.20;;;;;;;3.10;94.78;102085.10;103943;1299;60478;-75
2022/11/13 03:19:58;;;;;;;21.70;16.00;;;;;;;3.09;95.05;102084.27;103419;1298;73031;-74
2022/11/13 03:22:25;;;;;;;21.40;15.80;;;;;;;3.06;94.76;102083.39;104316;1306;69402;-75
2022/11/13 03:24:52;;;;;;;20.60;15.40;;;;;;;3.05;94.91;102079.99;103425;1291;73101;-74
2022/11/13 03:27:19;;;;;;;22.30;15.00;;;;;;;3.02;95.30;102076.11;104379;1303;58491;-75
2022/11/13 03:29:45;;;;;;;21.90;15.00;;;;;;;3.01;95.11;102079.54;104127;1299;60489;-74
2022/11/13 03:32:12;;;;;;;22.90;15.50;;;;;;;3.00;94.88;102073.29;103300;1293;60405;-74
2022/11/13 03:34:38;;;;;;;22.20;15.10;;;;;;;2.97;94.95;102069.95;103937;1294;60417;-75
2022/11/13 03:37:05;;;;;;;23.60;14.40;;;;;;;2.95;94.80;102069.73;103950;1300;60575;-75
2022/11/13 03:39:31;;;;;;;22.60;15.60;;;;;;;2.91;95.09;102074.15;104295;1292;60597;-75
2022/11/13 03:41:58;;;;;;;21.60;15.90;;;;;;;2.90;95.01;102070.75;104520;1301;59336;-76
2022/11/13 03:44:24;;;;;;;22.30;16.40;;;;;;;2.89;95.11;102071.34;104260;1292;60587;-75
2022/11/13 03:46:51;;;;;;;23.70;16.10;;;;;;;2.88;95.02;102068.11;103722;1296;60776;-75
2022/11/13 03:49:17;;;;;;;21.80;15.30;;;;;;;2.86;95.30;102062.95;103666;1294;60588;-76
2022/11/13 03:51:43;;;;;;;22.30;15.40;;;;;;;2.84;95.15;102061.61;103981;1302;60621;-75
2022/11/13 03:54:10;;;;;;;21.90;15.60;;;;;;;2.84;95.11;102064.79;103693;1294;60690;-76
2022/11/13 03:56:36;;;;;;;20.70;15.60;;;;;;;2.81;94.91;102061.62;103174;1294;60572;-74
2022/11/13 03:59:04;;;;;;;22.80;15.80;;;;;;;2.78;94.86;102060.23;103404;1298;71092;-75
2022/11/13 04:01:30;;;;;;;22.10;16.30;;;;;;;2.75;94.99;102063.23;102877;1302;60595;-74
2022/11/13 04:03:57;;;;;;;24.40;16.00;;;;;;;2.71;94.89;102062.23;103226;1302;61230;-75
2022/11/13 04:06:24;;;;;;;23.70;15.80;;;;;;;2.69;95.19;102063.73;103411;1300;60675;-74
2022/11/13 04:08:50;;;;;;;20.30;15.60;;;;;;;2.68;95.64;102063.45;103044;1299;60749;-74
2022/11/13 04:11:17;;;;;;;22.20;15.70;;;;;;;2.67;95.38;102064.57;103178;1301;69757;-76
2022/11/13 04:13:43;;;;;;;24.20;16.70;;;;;;;2.63;95.23;102061.81;103906;1300;60585;-74
2022/11/13 04:16:10;;;;;;;24.70;17.30;;;;;;;2.61;95.37;102055.68;103022;1291;60897;-75
2022/11/13 04:18:36;;;;;;;25.50;17.10;;;;;;;2.59;95.40;102055.45;102805;1300;60593;-76
2022/11/13 04:21:04;;;;;;;22.40;16.00;;;;;;;2.59;95.60;102057.54;102936;1300;60531;-76
2022/11/13 04:23:31;;;;;;;24.60;16.30;;;;;;;2.58;95.70;102053.02;103187;1301;72114;-76
2022/11/13 04:25:57;;;;;;;23.80;16.40;;;;;;;2.58;95.72;102046.60;103467;1301;71599;-74
2022/11/13 04:28:24;;;;;;;23.60;16.60;;;;;;;2.57;95.59;102045.04;103061;1301;60460;-74
2022/11/13 04:30:54;;;;;;;25.30;16.50;;;;;;;2.55;95.58;102039.42;103481;1299;60621;-75
2022/11/13 04:33:21;;;;;;;24.70;16.00;;;;;;;2.53;95.60;102038.13;103737;1299;72802;-75
2022/11/13 04:35:47;;;;;;;23.50;16.60;;;;;;;2.51;95.64;102040.21;102959;1300;70406;-77
2022/11/13 04:38:14;;;;;;;24.80;17.20;;;;;;;2.47;95.22;102041.09;103040;1299;71243;-76
2022/11/13 04:40:42;;;;;;;25.60;17.10;;;;;;;2.43;95.56;102041.51;103452;1298;61011;-76
2022/11/13 04:43:08;;;;;;;27.30;18.00;;;;;;;2.39;95.52;102035.44;104065;1299;60408;-76
2022/11/13 04:45:36;;;;;;;24.60;17.20;;;;;;;2.38;95.77;102031.83;103563;1299;75852;-76
2022/11/13 04:48:02;;;;;;;24.90;17.50;;;;;;;2.38;95.83;102027.66;102988;1299;70850;-75
2022/11/13 04:50:29;;;;;;;25.50;17.60;;;;;;;2.37;95.81;102016.70;103768;1300;71313;-75
2022/11/13 04:52:55;;;;;;;25.10;17.70;;;;;;;2.37;96.10;102013.08;102977;1292;61092;-74
2022/11/13 04:55:22;;;;;;;27.70;18.10;;;;;;;2.36;96.30;102013.96;103184;1301;60528;-75
2022/11/13 04:57:50;;;;;;;26.90;18.30;;;;;;;2.34;95.93;102007.98;102875;1297;60485;-75
2022/11/13 05:00:17;;;;;;;25.50;17.90;;;;;;;2.33;96.17;102005.09;103366;1290;70113;-75
2022/11/13 05:02:43;;;;;;;24.30;17.60;;;;;;;2.32;96.29;102005.52;103809;1303;72144;-75
2022/11/13 05:05:10;;;;;;;24.60;17.20;;;;;;;2.31;96.24;101998.56;102981;1302;60958;-75
2022/11/13 05:07:36;;;;;;;26.20;17.30;;;;;;;2.30;96.33;101998.77;103490;1299;60544;-75
2022/11/13 05:10:03;;;;;;;25.70;17.80;;;;;;;2.30;96.28;101993.23;103473;1292;60518;-74
2022/11/13 05:12:30;;;;;;;25.90;17.70;;;;;;;2.29;96.40;101998.14;103150;1289;71129;-75
2022/11/13 05:14:56;;;;;;;24.80;17.30;;;;;;;2.29;96.54;101999.23;103294;1305;60503;-75
2022/11/13 05:17:23;;;;;;;28.30;17.60;;;;;;;2.28;96.61;101996.68;103425;1297;60487;-75
2022/11/13 05:19:49;;;;;;;26.70;17.30;;;;;;;2.27;96.26;101998.10;103413;1300;60500;-75
2022/11/13 05:22:16;;;;;;;25.30;17.20;;;;;;;2.27;96.51;102003.71;102954;1296;60454;-75
2022/11/13 05:24:42;;;;;;;23.70;16.90;;;;;;;2.26;96.72;102002.88;103796;1291;59299;-74
2022/11/13 05:27:08;;;;;;;25.70;17.70;;;;;;;2.25;96.40;102003.95;103053;1302;60490;-74
2022/11/13 05:29:42;;;;;;;25.80;17.40;;;;;;;2.24;96.49;102005.26;103831;1296;62284;-74
2022/11/13 05:32:09;;;;;;;25.00;17.10;;;;;;;2.22;96.41;102004.49;103358;1305;60494;-74
2022/11/13 05:34:35;;;;;;;24.20;16.60;;;;;;;2.21;96.41;102012.55;103356;1299;60564;-74
2022/11/13 05:37:02;;;;;;;24.20;16.60;;;;;;;2.20;96.32;102003.53;103120;1300;60957;-74
2022/11/13 05:39:28;;;;;;;25.10;17.20;;;;;;;2.19;96.81;102005.02;103554;1302;60530;-75
2022/11/13 05:41:54;;;;;;;24.70;16.50;;;;;;;2.18;96.71;102000.56;103063;1299;60463;-74
2022/11/13 05:44:21;;;;;;;26.10;17.10;;;;;;;2.16;96.33;101998.73;103404;1300;60484;-74
2022/11/13 05:46:47;;;;;;;24.40;16.60;;;;;;;2.14;96.31;101995.36;102845;1302;60531;-74
2022/11/13 05:49:14;;;;;;;21.10;15.90;;;;;;;2.10;96.14;101997.89;103222;1297;60830;-74
2022/11/13 05:51:40;;;;;;;23.20;16.20;;;;;;;2.05;95.96;101993.61;103117;1295;60599;-74
2022/11/13 05:54:07;;;;;;;23.80;16.60;;;;;;;2.00;96.00;101993.02;102830;1302;59590;-75
2022/11/13 05:56:35;;;;;;;24.40;17.00;;;;;;;1.95;95.90;101990.34;103246;1291;60574;-74
2022/11/13 05:59:03;;;;;;;25.70;17.10;;;;;;;1.91;96.18;101991.26;103123;1301;72419;-74
2022/11/13 06:01:36;;;;;;;28.10;17.80;;;;;;;1.86;96.38;101988.23;103239;1298;71282;-74
2022/11/13 06:04:04;;;;;;;26.60;18.30;;;;;;;1.83;96.48;101985.09;102936;1293;72756;-75
2022/11/13 06:06:31;;;;;;;27.70;18.80;;;;;;;1.80;96.72;101982.80;102511;1292;60476;-74
2022/11/13 06:09:01;;;;;;;27.70;18.80;;;;;;;1.79;96.60;101982.72;103315;1295;60568;-75
2022/11/13 06:11:29;;;;;;;27.80;18.50;;;;;;;1.77;96.76;101981.02;103732;1296;71469;-74
2022/11/13 06:13:57;;;;;;;28.70;19.20;;;;;;;1.77;96.90;101979.48;102624;1300;70051;-74
2022/11/13 06:16:32;;;;;;;29.50;19.00;;;;;;;1.77;97.09;101971.10;103068;1302;71758;-74
2022/11/13 06:19:01;;;;;;;25.80;18.80;;;;;;;1.78;96.80;101970.02;102906;1303;62174;-74
2022/11/13 06:21:31;;;;;;;27.10;18.40;;;;;;;1.77;97.03;101969.52;103079;1299;60669;-74
2022/11/13 06:23:59;;;;;;;29.40;18.70;;;;;;;1.77;97.10;101960.81;102482;1304;72945;-74
2022/11/13 06:26:31;;;;;;;27.10;18.30;;;;;;;1.78;96.95;101960.73;103308;1299;69262;-74
2022/11/13 06:28:59;;;;;;;29.20;18.40;;;;;;;1.78;97.12;101956.55;103613;1293;71087;-74
2022/11/13 06:31:28;;;;;;;27.80;18.00;;;;;;;1.77;97.06;101952.96;102628;1302;301451;-75
2022/11/13 06:33:58;;;;;;;29.00;18.50;;;;;;;1.77;97.12;101957.70;103302;1299;61193;-74
2022/11/13 06:36:27;;;;;;;25.20;17.70;;;;;;;1.76;96.98;101958.97;103524;1291;72661;-75
2022/11/13 06:38:54;;;;;;;28.20;18.20;;;;;;;1.76;96.79;101956.02;103216;1301;68685;-75
2022/11/13 06:41:23;;;;;;;26.90;17.90;;;;;;;1.75;96.95;101963.38;103049;1300;72419;-75
2022/11/13 06:43:50;;;;;;;28.10;17.60;;;;;;;1.75;96.60;101963.05;102667;1296;60877;-74
2022/11/13 06:46:21;;;;;;;28.30;17.50;;;;;;;1.75;96.93;101967.08;103417;1293;61617;-74
2022/11/13 06:48:48;;;;;;;25.90;17.70;;;;;;;1.74;96.86;101970.43;103118;1293;72730;-74
2022/11/13 06:51:18;;;;;;;28.30;17.90;;;;;;;1.74;96.87;101972.66;103052;1301;70829;-74
2022/11/13 06:53:46;;;;;;;26.20;18.50;;;;;;;1.74;96.95;101975.81;103417;1298;72035;-74
2022/11/13 06:56:13;;;;;;;28.90;18.70;;;;;;;1.76;96.95;101980.42;103144;1295;61238;-74
2022/11/13 06:58:42;;;;;;;28.80;18.90;;;;;;;1.79;97.37;101979.91;105599;1292;60537;-75
2022/11/13 07:01:18;;;;;;;32.70;20.00;;;;;;;1.82;97.46;101984.43;105652;1286;73656;-75
2022/11/13 07:03:44;;;;;;;29.20;19.00;;;;;;;1.85;97.47;101987.92;105647;1286;69451;-75
2022/11/13 07:06:17;;;;;;;30.50;19.40;;;;;;;1.89;97.37;101990.48;105631;1284;58236;-75
2022/11/13 07:08:45;;;;;;;32.10;18.80;;;;;;;1.93;97.34;101987.82;104334;1302;60706;-75
2022/11/13 07:11:14;;;;;;;29.80;19.50;;;;;;;1.98;97.47;101991.38;103432;1300;60519;-74
2022/11/13 07:13:42;;;;;;;33.00;19.40;;;;;;;2.05;97.51;101989.08;103231;1299;71889;-75
2022/11/13 07:16:10;;;;;;;34.30;20.60;;;;;;;2.11;97.56;101988.37;103100;1292;69857;-75
2022/11/13 07:18:47;;;;;;;34.80;20.50;;;;;;;2.18;97.96;101984.98;103253;1298;73733;-75
2022/11/13 07:21:14;;;;;;;33.70;20.90;;;;;;;2.24;97.82;101989.34;103326;1291;60863;-75
2022/11/13 07:23:42;;;;;;;35.00;21.30;;;;;;;2.31;98.06;101989.34;103557;1302;60578;-75
2022/11/13 07:26:10;;;;;;;36.60;21.60;;;;;;;2.37;97.88;101990.55;104202;1291;72404;-75
2022/11/13 07:28:37;;;;;;;34.50;21.60;;;;;;;2.42;97.78;101993.35;103337;1303;70381;-74
2022/11/13 07:31:06;;;;;;;38.80;22.60;;;;;;;2.48;97.92;101990.45;104352;1287;71946;-75
2022/11/13 07:33:33;;;;;;;35.90;22.60;;;;;;;2.52;97.80;101988.45;105560;1294;62197;-75
2022/11/13 07:36:00;;;;;;;37.00;22.60;;;;;;;2.55;97.59;101987.23;105629;1289;58757;-76
2022/11/13 07:38:26;;;;;;;36.00;22.40;;;;;;;2.58;97.73;101982.83;105561;1292;73944;-76
2022/11/13 07:40:53;;;;;;;34.30;21.10;;;;;;;2.61;97.53;101984.04;105565;1293;70130;-76
2022/11/13 07:43:20;;;;;;;31.20;21.50;;;;;;;2.64;97.57;101984.91;105359;1292;71984;-75
2022/11/13 07:45:53;;;;;;;32.10;21.40;;;;;;;2.68;97.46;101982.96;103913;1299;62026;-76
2022/11/13 07:48:21;;;;;;;32.70;21.30;;;;;;;2.69;96.63;101984.63;103028;1291;60603;-74
2022/11/13 07:50:49;;;;;;;32.20;23.20;;;;;;;2.72;96.81;101983.22;103194;1299;73875;-75
2022/11/13 07:53:16;;;;;;;33.80;24.20;;;;;;;2.81;97.16;101985.83;103057;1301;69529;-75
2022/11/13 07:55:43;;;;;;;36.40;24.80;;;;;;;2.90;97.24;101979.39;103364;1294;71837;-75
2022/11/13 07:58:10;;;;;;;37.80;24.70;;;;;;;3.00;97.72;101979.80;103109;1294;60607;-76
2022/11/13 08:00:36;;;;;;;38.20;25.40;;;;;;;3.12;97.79;101976.45;103218;1298;60506;-75
2022/11/13 08:03:12;;;;;;;39.50;24.90;;;;;;;3.23;98.09;101971.21;104150;1294;73087;-74
2022/11/13 08:05:39;;;;;;;36.70;25.10;;;;;;;3.35;98.32;101968.34;103337;1293;71662;-73
2022/11/13 08:08:07;;;;;;;41.00;27.10;;;;;;;3.48;98.47;101968.60;103067;1300;71355;-73
2022/11/13 08:10:34;;;;;;;42.90;28.30;;;;;;;3.59;98.36;101967.69;102709;1302;60944;-73
2022/11/13 08:13:06;;;;;;;35.70;26.30;;;;;;;3.72;98.32;101972.33;103280;1300;60580;-74
2022/11/13 08:15:33;;;;;;;38.20;25.40;;;;;;;3.82;98.24;101971.30;102811;1289;72148;-74
2022/11/13 08:18:01;;;;;;;38.50;26.20;;;;;;;3.97;98.54;101970.88;103035;1295;70928;-75
2022/11/13 08:20:29;;;;;;;39.50;27.00;;;;;;;4.12;98.82;101969.20;104699;1294;72515;-74
2022/11/13 08:22:57;;;;;;;37.20;25.50;;;;;;;4.28;99.06;101970.59;103330;1299;61696;-75
2022/11/13 08:25:24;;;;;;;38.30;26.40;;;;;;;4.44;98.84;101971.75;103054;1298;60421;-74
2022/11/13 08:27:52;;;;;;;34.20;24.40;;;;;;;4.60;98.93;101968.05;102741;1296;72290;-75
2022/11/13 08:30:19;;;;;;;32.80;23.20;;;;;;;4.74;98.61;101969.70;103283;1301;72315;-76
2022/11/13 08:32:47;;;;;;;30.50;22.60;;;;;;;4.89;98.51;101970.79;103516;1299;70973;-76
2022/11/13 08:35:13;;;;;;;28.10;21.60;;;;;;;5.04;98.24;101973.80;102924;1302;60659;-75
2022/11/13 08:37:45;;;;;;;27.60;21.00;;;;;;;5.19;98.28;101970.64;103525;1291;62007;-76
2022/11/13 08:40:12;;;;;;;27.20;20.80;;;;;;;5.31;97.57;101971.88;104268;1292;72684;-76
2022/11/13 08:42:38;;;;;;;28.00;19.70;;;;;;;5.42;97.35;101972.19;103507;1296;70935;-74
2022/11/13 08:45:06;;;;;;;24.40;19.40;;;;;;;5.56;97.29;101971.19;104032;1295;60948;-75
2022/11/13 08:47:32;;;;;;;25.60;18.90;;;;;;;5.68;96.58;101963.41;103550;1295;60877;-75
2022/11/13 08:49:59;;;;;;;22.40;17.20;;;;;;;5.81;96.46;101968.69;104075;1300;59739;-77
2022/11/13 08:52:25;;;;;;;23.70;18.50;;;;;;;5.93;96.13;101967.11;104536;1293;72734;-75
2022/11/13 08:54:53;;;;;;;21.70;17.80;;;;;;;6.06;95.90;101964.73;103628;1294;69799;-76
2022/11/13 08:57:20;;;;;;;22.90;17.10;;;;;;;6.19;95.44;101964.77;104654;1293;71444;-77
2022/11/13 08:59:46;;;;;;;19.40;15.80;;;;;;;6.34;95.46;101970.16;104130;1300;59664;-77
2022/11/13 09:02:14;;;;;;;19.10;15.50;;;;;;;6.48;95.09;101975.43;103696;1296;59361;-77
2022/11/13 09:04:41;;;;;;;19.00;15.10;;;;;;;6.61;94.45;101974.67;103969;1285;71625;-77
2022/11/13 09:07:08;;;;;;;17.70;14.60;;;;;;;6.68;93.14;101973.95;103600;1300;71053;-76
2022/11/13 09:09:35;;;;;;;20.50;14.80;;;;;;;6.72;92.39;101974.64;104347;1296;71348;-76
2022/11/13 09:12:02;;;;;;;16.80;14.30;;;;;;;6.76;91.81;101975.06;103458;1294;61638;-74
2022/11/13 09:14:29;;;;;;;19.90;15.30;;;;;;;6.82;91.46;101978.16;104310;1294;58618;-75
2022/11/13 09:16:56;;;;;;;18.90;14.90;;;;;;;6.89;91.21;101973.87;104228;1292;74482;-75
2022/11/13 09:19:22;;;;;;;17.60;13.90;;;;;;;6.92;90.14;101975.60;103715;1297;70866;-75
2022/11/13 09:21:50;;;;;;;17.50;13.70;;;;;;;6.92;89.48;101973.23;104116;1293;61672;-76
2022/11/13 09:24:17;;;;;;;16.30;13.20;;;;;;;6.97;89.67;101970.63;103658;1292;60459;-76
2022/11/13 09:26:43;;;;;;;17.40;13.40;;;;;;;6.97;88.66;101975.73;103893;1296;60608;-77
2022/11/13 09:29:10;;;;;;;20.60;14.50;;;;;;;6.94;87.77;101976.34;103960;1299;73908;-76
2022/11/13 09:31:39;;;;;;;17.50;13.20;;;;;;;6.88;87.07;101971.16;103667;1297;71260;-75
2022/11/13 09:34:07;;;;;;;15.30;12.90;;;;;;;6.76;86.39;101972.61;104511;1292;73792;-76
2022/11/13 09:36:35;;;;;;;16.50;13.20;;;;;;;6.68;86.11;101973.42;104103;1299;61148;-77
2022/11/13 09:39:03;;;;;;;16.50;13.10;;;;;;;6.62;86.34;101973.55;104669;1295;59353;-77
2022/11/13 09:41:40;;;;;;;16.70;13.60;;;;;;;6.55;86.31;101972.10;103568;1301;72274;-76
2022/11/13 09:44:30;;;;;;;18.20;14.40;;;;;;;6.53;86.78;101972.11;103718;1296;69532;-75
2022/11/13 09:47:20;;;;;;;15.90;13.90;;;;;;;6.55;86.98;101973.14;103607;1294;71450;-75
2022/11/13 09:50:02;;;;;;;17.80;13.80;;;;;;;6.54;86.76;101971.46;103972;1300;60462;-75
2022/11/13 09:52:35;;;;;;;17.70;14.30;;;;;;;6.53;86.75;101967.87;103594;1295;59663;-76
2022/11/13 09:55:03;;;;;;;17.50;13.90;;;;;;;6.51;86.86;101965.84;103886;1294;72695;-80
2022/11/13 09:58:09;;;;;;;19.00;14.00;;;;;;;6.49;87.09;101966.91;104559;1284;69548;-75
2022/11/13 10:00:36;;;;;;;18.20;14.00;;;;;;;6.47;87.05;101968.48;103543;1299;72457;-74
2022/11/13 10:03:17;;;;;;;17.10;13.70;;;;;;;6.49;87.15;101967.64;104180;1290;61012;-75
2022/11/13 10:06:22;;;;;;;19.30;15.40;;;;;;;6.43;86.94;101966.14;103916;1298;60445;-74
2022/11/13 10:08:56;;;;;;;18.40;15.00;;;;;;;6.45;87.52;101954.59;104639;1296;74852;-73
2022/11/13 10:11:45;;;;;;;21.90;15.80;;;;;;;6.49;87.63;101948.80;103514;1291;69594;-74
2022/11/13 10:14:14;;;;;;;19.00;14.80;;;;;;;6.57;87.57;101947.73;104535;1292;72414;-73
2022/11/13 10:16:48;;;;;;;20.20;15.40;;;;;;;6.58;87.24;101942.84;104282;1289;61278;-75
2022/11/13 10:19:31;;;;;;;18.50;14.90;;;;;;;6.64;87.39;101941.91;104072;1295;61832;-74
2022/11/13 10:22:36;;;;;;;20.50;15.30;;;;;;;6.74;87.58;101936.02;103855;1293;73515;-73
2022/11/13 10:25:15;;;;;;;20.60;15.40;;;;;;;6.87;87.35;101932.17;103932;1300;70283;-76
2022/11/13 10:28:10;;;;;;;20.80;15.60;;;;;;;6.98;87.12;101933.25;104201;1297;73070;-75
2022/11/13 10:30:56;;;;;;;21.10;15.50;;;;;;;7.09;86.93;101929.27;103999;1293;63190;-75
2022/11/13 10:33:24;;;;;;;20.20;14.80;;;;;;;7.14;87.00;101935.13;103706;1294;60480;-75
2022/11/13 10:35:56;;;;;;;22.70;16.60;;;;;;;7.18;86.34;101933.65;103992;1299;72417;-76
2022/11/13 10:38:24;;;;;;;23.00;17.20;;;;;;;7.17;86.41;101934.95;104238;1296;71076;-75
2022/11/13 10:40:51;;;;;;;24.50;18.10;;;;;;;7.13;86.31;101934.16;103823;1293;71960;-75
2022/11/13 10:43:17;;;;;;;24.80;17.00;;;;;;;7.08;86.63;101934.23;103633;1299;60623;-75
2022/11/13 10:46:24;;;;;;;26.20;18.20;;;;;;;6.98;86.19;101929.74;104690;1292;60539;-76
2022/11/13 10:48:51;;;;;;;25.20;17.50;;;;;;;6.91;86.79;101934.16;103896;1296;72502;-76
2022/11/13 10:51:22;;;;;;;24.50;17.50;;;;;;;6.90;87.11;101932.34;104261;1285;69539;-76
2022/11/13 10:53:49;;;;;;;26.00;18.70;;;;;;;6.88;87.26;101931.04;103827;1294;70844;-75
2022/11/13 10:56:21;;;;;;;27.50;17.80;;;;;;;6.86;87.42;101925.21;104549;1291;60348;-75
2022/11/13 10:59:09;;;;;;;24.90;16.50;;;;;;;6.82;87.79;101921.48;105413;1286;61379;-75
2022/11/13 11:01:36;;;;;;;23.70;15.70;;;;;;;6.80;88.60;101918.83;104747;1292;72927;-75
2022/11/13 11:04:11;;;;;;;25.10;17.10;;;;;;;6.83;88.91;101915.27;104410;1300;69972;-75
2022/11/13 11:06:39;;;;;;;25.60;16.80;;;;;;;6.90;89.36;101915.94;105526;1286;71013;-75
2022/11/13 11:09:29;;;;;;;27.70;17.40;;;;;;;7.04;89.87;101915.02;103912;1286;61190;-75
2022/11/13 11:12:22;;;;;;;26.40;17.90;;;;;;;7.15;89.50;101906.11;103486;1294;60570;-75
2022/11/13 11:14:56;;;;;;;26.90;18.20;;;;;;;7.27;90.19;101901.37;103402;1296;72023;-75
2022/11/13 11:17:40;;;;;;;25.70;17.60;;;;;;;7.39;89.78;101901.20;102973;1292;60520;-75
2022/11/13 11:20:19;;;;;;;26.40;18.50;;;;;;;7.48;89.86;101892.86;103578;1294;70832;-75